Time;durP1;ratioP1;P1;durP2;ratioP2;P2;SDS_P1;SDS_P2;PMS_P1;PMS_P2;Temp;Humidity;BMP_temperature;BMP_pressure;BME280_temperature;BME280_humidity;BME280_pressure;Samples;Min_cycle;Max_cycle;Signal;HPM_P1;HPM_P2
2023/02/03 00:02:09;;;;;;;;;;;4.70;99.90;;;;;;5004571;28;19913;-87
2023/02/03 00:04:45;;;;;;;;;;;4.60;99.90;;;;;;5012753;28;19914;-85
2023/02/03 00:07:15;;;;;;;;;;;4.60;99.90;;;;;;4983943;28;19913;-86
2023/02/03 00:09:57;;;;;;;;;;;;;;;;;;;;;
2023/02/03 00:12:29;;;;;;;;;;;4.70;99.90;;;;;;5002319;28;19989;-85
2023/02/03 00:14:54;;;;;;;;;;;4.70;99.90;;;;;;5001621;28;19918;-86
2023/02/03 00:17:20;;;;;;;;;;;4.70;99.90;;;;;;4996757;28;19933;-83
2023/02/03 00:19:50;;;;;;;;;;;4.70;99.90;;;;;;5013762;28;19910;-85
2023/02/03 00:22:19;;;;;;;;;;;4.70;99.90;;;;;;4999513;28;20311;-85
2023/02/03 00:24:50;;;;;;;;;;;4.80;99.90;;;;;;4998691;28;19977;-85
2023/02/03 00:27:18;;;;;;;;;;;4.80;99.90;;;;;;5000707;28;19916;-86
2023/02/03 00:29:45;;;;;;;;;;;4.80;99.90;;;;;;5001767;28;19910;-85
2023/02/03 00:32:11;;;;;;;;;;;4.80;99.90;;;;;;5007870;28;19917;-86
2023/02/03 00:34:39;;;;;;;;;;;4.90;99.90;;;;;;4985888;28;20291;-86
2023/02/03 00:37:07;;;;;;;;;;;4.80;99.90;;;;;;5012657;28;20371;-86
2023/02/03 00:39:48;;;;;;;;;;;4.80;99.90;;;;;;5001950;28;19957;-85
2023/02/03 00:42:16;;;;;;;;;;;4.80;99.90;;;;;;4999500;28;19917;-85
2023/02/03 00:44:55;;;;;;;;;;;4.80;99.90;;;;;;5000519;28;19913;-85
2023/02/03 00:47:23;;;;;;;;;;;4.80;99.90;;;;;;4997835;28;19916;-85
2023/02/03 00:50:09;;;;;;;;;;;4.90;99.90;;;;;;5020163;28;19910;-84
2023/02/03 00:52:35;;;;;;;;;;;4.90;99.90;;;;;;5023437;28;19913;-84
2023/02/03 00:55:20;;;;;;;;;;;5.00;99.90;;;;;;5023727;28;20016;-85
2023/02/03 00:57:50;;;;;;;;;;;5.00;99.90;;;;;;5024995;28;19914;-85
2023/02/03 01:00:20;;;;;;;;;;;5.00;99.90;;;;;;5020783;28;20359;-85
2023/02/03 01:02:55;;;;;;;;;;;5.00;99.90;;;;;;5022903;28;19909;-86
2023/02/03 01:05:20;;;;;;;;;;;5.00;99.90;;;;;;5024512;28;19909;-85
2023/02/03 01:08:04;;;;;;;;;;;5.00;99.90;;;;;;5021102;28;19917;-86
2023/02/03 01:10:40;;;;;;;;;;;4.90;99.90;;;;;;5028978;28;19898;-86
2023/02/03 01:13:13;;;;;;;;;;;4.90;99.90;;;;;;5021332;28;19920;-86
2023/02/03 01:15:47;;;;;;;;;;;4.90;99.90;;;;;;5020710;28;20294;-85
2023/02/03 01:18:13;;;;;;;;;;;4.90;99.90;;;;;;4973516;28;19910;-85
2023/02/03 01:20:46;;;;;;;;;;;5.00;99.90;;;;;;5013376;28;19963;-85
2023/02/03 01:23:12;;;;;;;;;;;5.00;99.90;;;;;;5017284;28;19956;-85
2023/02/03 01:25:40;;;;;;;;;;;5.00;99.90;;;;;;5018584;28;19975;-86
2023/02/03 01:28:08;;;;;;;;;;;5.00;99.90;;;;;;5013004;28;19922;-86
2023/02/03 01:30:34;;;;;;;;;;;5.00;99.90;;;;;;5003862;28;19957;-86
2023/02/03 01:33:10;;;;;;;;;;;5.00;99.90;;;;;;5003149;28;19917;-85
2023/02/03 01:35:41;;;;;;;;;;;5.00;99.90;;;;;;4985488;28;19917;-87
2023/02/03 01:38:07;;;;;;;;;;;5.00;99.90;;;;;;5003536;28;19910;-85
2023/02/03 01:40:33;;;;;;;;;;;5.00;99.90;;;;;;5004609;28;19921;-85
2023/02/03 01:43:01;;;;;;;;;;;5.00;99.90;;;;;;5005705;28;19910;-85
2023/02/03 01:45:29;;;;;;;;;;;4.90;99.90;;;;;;5014043;28;19918;-85
2023/02/03 01:47:57;;;;;;;;;;;5.00;99.90;;;;;;5015648;28;19968;-85
2023/02/03 01:50:29;;;;;;;;;;;5.00;99.90;;;;;;5016418;28;19914;-86
2023/02/03 01:52:57;;;;;;;;;;;5.00;99.90;;;;;;5016219;28;19910;-84
2023/02/03 01:55:27;;;;;;;;;;;5.00;99.90;;;;;;5011918;28;19921;-84
2023/02/03 01:58:01;;;;;;;;;;;4.90;99.90;;;;;;4997100;28;19914;-85
2023/02/03 02:00:27;;;;;;;;;;;5.00;99.90;;;;;;4979428;28;19970;-85
2023/02/03 02:02:53;;;;;;;;;;;5.00;99.90;;;;;;4986254;28;19925;-85
2023/02/03 02:05:31;;;;;;;;;;;5.00;99.90;;;;;;4981337;28;20413;-85
2023/02/03 02:07:58;;;;;;;;;;;5.00;99.90;;;;;;4980232;28;20374;-86
2023/02/03 02:10:27;;;;;;;;;;;5.00;99.90;;;;;;4994531;28;19917;-85
2023/02/03 02:12:54;;;;;;;;;;;5.00;99.90;;;;;;4999850;28;19914;-83
2023/02/03 02:15:23;;;;;;;;;;;5.10;99.90;;;;;;5003170;28;19973;-86
2023/02/03 02:17:54;;;;;;;;;;;5.10;99.90;;;;;;4968889;28;19918;-86
2023/02/03 02:20:42;;;;;;;;;;;5.10;99.90;;;;;;5010944;28;19913;-87
2023/02/03 02:23:26;;;;;;;;;;;5.10;99.70;;;;;;4985610;28;19920;-87
2023/02/03 02:26:10;;;;;;;;;;;5.10;99.70;;;;;;5005897;28;19914;-85
2023/02/03 02:28:51;;;;;;;;;;;5.10;99.70;;;;;;5003722;28;20351;-86
2023/02/03 02:31:17;;;;;;;;;;;5.20;99.30;;;;;;4989744;28;19920;-84
2023/02/03 02:33:56;;;;;;;;;;;5.10;99.30;;;;;;4984093;28;19922;-86
2023/02/03 02:36:43;;;;;;;;;;;5.20;99.40;;;;;;4982482;28;19917;-86
2023/02/03 02:39:15;;;;;;;;;;;5.20;99.00;;;;;;4965334;28;19910;-85
2023/02/03 02:41:44;;;;;;;;;;;5.30;98.60;;;;;;5013279;28;19909;-86
2023/02/03 02:44:29;;;;;;;;;;;5.30;98.60;;;;;;5001075;28;19941;-86
2023/02/03 02:46:57;;;;;;;;;;;5.20;98.60;;;;;;4981647;28;19910;-85
2023/02/03 02:49:34;;;;;;;;;;;5.20;98.60;;;;;;4982735;28;19993;-88
2023/02/03 02:52:04;;;;;;;;;;;5.20;98.70;;;;;;5003792;28;19921;-85
2023/02/03 02:54:31;;;;;;;;;;;5.20;98.60;;;;;;5000176;28;19960;-83
2023/02/03 02:56:58;;;;;;;;;;;5.20;98.70;;;;;;5001505;28;20009;-85
2023/02/03 02:59:24;;;;;;;;;;;5.20;98.60;;;;;;5000417;28;19945;-85
2023/02/03 03:01:50;;;;;;;;;;;5.30;98.50;;;;;;4985685;28;19917;-86
2023/02/03 03:04:18;;;;;;;;;;;5.20;98.40;;;;;;4981099;28;19911;-85
2023/02/03 03:06:46;;;;;;;;;;;5.30;98.40;;;;;;4978939;28;19910;-84
2023/02/03 03:09:18;;;;;;;;;;;5.20;98.50;;;;;;4980710;28;20494;-85
2023/02/03 03:11:52;;;;;;;;;;;5.20;98.40;;;;;;4988129;28;20052;-85
2023/02/03 03:14:19;;;;;;;;;;;5.20;98.80;;;;;;4986638;28;19938;-85
2023/02/03 03:16:48;;;;;;;;;;;5.20;98.60;;;;;;4979756;28;20351;-87
2023/02/03 03:19:24;;;;;;;;;;;5.20;98.50;;;;;;4971108;28;19924;-86
2023/02/03 03:21:53;;;;;;;;;;;5.20;98.50;;;;;;4999917;28;20026;-86
2023/02/03 03:24:23;;;;;;;;;;;5.20;98.40;;;;;;5002868;28;19910;-85
2023/02/03 03:26:51;;;;;;;;;;;5.20;98.30;;;;;;4998965;28;19910;-85
2023/02/03 03:29:21;;;;;;;;;;;5.20;98.00;;;;;;4980692;28;19926;-85
2023/02/03 03:31:47;;;;;;;;;;;5.30;98.20;;;;;;4980819;28;19910;-85
2023/02/03 03:34:13;;;;;;;;;;;5.30;98.10;;;;;;4980536;28;19914;-85
2023/02/03 03:36:54;;;;;;;;;;;5.30;98.00;;;;;;4980369;28;19948;-86
2023/02/03 03:39:38;;;;;;;;;;;5.20;98.00;;;;;;4979672;28;19917;-86
2023/02/03 03:42:19;;;;;;;;;;;5.20;98.00;;;;;;4979769;28;20415;-86
2023/02/03 03:45:03;;;;;;;;;;;5.20;98.00;;;;;;4979367;28;19910;-85
2023/02/03 03:47:46;;;;;;;;;;;5.30;98.00;;;;;;4978762;28;19921;-85
2023/02/03 03:50:14;;;;;;;;;;;5.20;97.90;;;;;;4972019;28;19910;-85
2023/02/03 03:52:40;;;;;;;;;;;5.20;97.60;;;;;;4978374;28;19929;-86
2023/02/03 03:55:08;;;;;;;;;;;5.30;97.50;;;;;;4978012;28;20319;-86
2023/02/03 03:57:43;;;;;;;;;;;5.30;97.40;;;;;;4979466;28;19914;-85
2023/02/03 04:00:10;;;;;;;;;;;5.30;97.30;;;;;;4979710;28;19910;-86
2023/02/03 04:02:37;;;;;;;;;;;5.20;97.40;;;;;;4982223;28;19910;-85
2023/02/03 04:05:03;;;;;;;;;;;5.20;97.00;;;;;;5001381;28;19918;-85
2023/02/03 04:07:42;;;;;;;;;;;5.30;97.10;;;;;;4996064;28;19910;-84
2023/02/03 04:10:29;;;;;;;;;;;5.30;97.20;;;;;;4999337;28;19910;-86
2023/02/03 04:12:55;;;;;;;;;;;5.30;97.10;;;;;;4999780;28;20086;-84
2023/02/03 04:15:21;;;;;;;;;;;5.20;97.00;;;;;;4996970;28;19925;-85
2023/02/03 04:17:46;;;;;;;;;;;5.30;97.10;;;;;;5004820;28;19914;-86
2023/02/03 04:20:12;;;;;;;;;;;5.30;97.00;;;;;;5008298;28;19997;-84
2023/02/03 04:22:37;;;;;;;;;;;5.30;96.80;;;;;;5003955;28;19982;-84
2023/02/03 04:25:03;;;;;;;;;;;5.30;96.60;;;;;;5008886;28;19914;-85
2023/02/03 04:27:29;;;;;;;;;;;5.30;96.30;;;;;;5002777;28;19910;-86
2023/02/03 04:29:54;;;;;;;;;;;5.30;96.30;;;;;;5021342;28;19913;-86
2023/02/03 04:32:20;;;;;;;;;;;5.30;96.40;;;;;;4988799;28;19933;-85
2023/02/03 04:34:45;;;;;;;;;;;5.30;96.50;;;;;;5004191;28;19910;-85
2023/02/03 04:37:11;;;;;;;;;;;5.20;96.60;;;;;;4987337;28;19917;-85
2023/02/03 04:39:36;;;;;;;;;;;5.30;96.50;;;;;;5005714;28;19911;-85
2023/02/03 04:42:02;;;;;;;;;;;5.20;96.50;;;;;;4991662;28;19921;-85
2023/02/03 04:44:27;;;;;;;;;;;5.30;96.60;;;;;;4984600;28;20371;-85
2023/02/03 04:46:53;;;;;;;;;;;5.20;96.50;;;;;;4991765;28;19913;-86
2023/02/03 04:49:18;;;;;;;;;;;5.30;96.40;;;;;;4995101;28;19918;-85
2023/02/03 04:51:44;;;;;;;;;;;5.20;96.40;;;;;;4980479;28;19910;-86
2023/02/03 04:54:10;;;;;;;;;;;5.30;96.20;;;;;;4988634;28;20012;-87
2023/02/03 04:56:36;;;;;;;;;;;5.30;96.30;;;;;;4990487;28;19981;-86
2023/02/03 04:59:01;;;;;;;;;;;5.30;96.30;;;;;;4983346;28;19910;-86
2023/02/03 05:01:27;;;;;;;;;;;5.30;96.00;;;;;;4983381;28;19910;-85
2023/02/03 05:03:53;;;;;;;;;;;5.30;96.20;;;;;;4983206;28;19910;-86
2023/02/03 05:06:21;;;;;;;;;;;5.20;96.20;;;;;;4986318;28;19918;-86
2023/02/03 05:08:47;;;;;;;;;;;5.30;96.20;;;;;;4994366;28;19914;-86
2023/02/03 05:11:12;;;;;;;;;;;5.30;96.00;;;;;;4999817;28;19970;-87
2023/02/03 05:13:38;;;;;;;;;;;5.30;96.00;;;;;;4999899;28;19914;-85
2023/02/03 05:16:04;;;;;;;;;;;5.30;96.10;;;;;;4995690;28;19925;-85
2023/02/03 05:18:29;;;;;;;;;;;5.30;96.10;;;;;;4996595;28;20017;-85
2023/02/03 05:20:55;;;;;;;;;;;5.30;96.30;;;;;;4980186;28;19910;-84
2023/02/03 05:23:20;;;;;;;;;;;5.20;96.40;;;;;;4997348;28;19945;-85
2023/02/03 05:25:46;;;;;;;;;;;5.20;96.10;;;;;;4996446;28;19914;-85
2023/02/03 05:28:12;;;;;;;;;;;5.30;96.30;;;;;;4982697;28;19918;-86
2023/02/03 05:30:37;;;;;;;;;;;5.20;96.40;;;;;;5000162;28;19910;-86
2023/02/03 05:33:03;;;;;;;;;;;5.20;96.50;;;;;;4976664;28;19941;-87
2023/02/03 05:35:32;;;;;;;;;;;5.20;96.40;;;;;;4961950;28;20001;-87
2023/02/03 05:37:58;;;;;;;;;;;5.20;96.60;;;;;;4981559;28;19914;-86
2023/02/03 05:43:08;;;;;;;;;;;5.20;96.20;;;;;;4999081;28;19921;-86
2023/02/03 05:45:33;;;;;;;;;;;5.20;96.30;;;;;;5001866;28;19909;-87
2023/02/03 05:48:01;;;;;;;;;;;5.20;96.30;;;;;;4966553;28;19918;-86
2023/02/03 05:50:31;;;;;;;;;;;5.20;96.20;;;;;;4951931;29;19910;-86
2023/02/03 05:53:01;;;;;;;;;;;5.20;96.20;;;;;;4957318;29;19974;-87
2023/02/03 05:55:27;;;;;;;;;;;5.20;96.20;;;;;;4956223;28;20375;-86
2023/02/03 05:57:53;;;;;;;;;;;5.30;96.10;;;;;;4985425;28;19960;-86
2023/02/03 06:00:20;;;;;;;;;;;5.20;96.00;;;;;;4965033;28;19910;-86
2023/02/03 06:02:55;;;;;;;;;;;5.20;96.20;;;;;;4980399;28;20287;-86
2023/02/03 06:05:21;;;;;;;;;;;5.30;96.00;;;;;;4982289;28;19910;-86
2023/02/03 06:07:47;;;;;;;;;;;5.30;96.10;;;;;;4983840;28;19918;-86
2023/02/03 06:10:13;;;;;;;;;;;5.20;96.20;;;;;;4981249;28;19961;-86
2023/02/03 06:12:38;;;;;;;;;;;5.20;96.40;;;;;;5003491;28;19920;-83
2023/02/03 06:15:04;;;;;;;;;;;5.20;96.20;;;;;;5000542;28;19972;-82
2023/02/03 06:17:30;;;;;;;;;;;5.20;96.20;;;;;;4987447;28;19981;-83
2023/02/03 06:19:55;;;;;;;;;;;5.20;96.30;;;;;;4970910;28;19958;-82
2023/02/03 06:22:21;;;;;;;;;;;5.20;96.30;;;;;;4979369;28;19914;-82
2023/02/03 06:24:47;;;;;;;;;;;5.10;96.20;;;;;;4979752;28;19921;-82
2023/02/03 06:27:15;;;;;;;;;;;5.10;96.10;;;;;;4980331;28;19918;-82
2023/02/03 06:29:41;;;;;;;;;;;5.20;96.00;;;;;;4992826;28;19961;-80
2023/02/03 06:32:07;;;;;;;;;;;5.10;96.20;;;;;;4996805;28;19910;-82
2023/02/03 06:34:33;;;;;;;;;;;5.20;96.00;;;;;;4998889;28;19920;-82
2023/02/03 06:36:58;;;;;;;;;;;5.10;96.00;;;;;;5001147;28;19917;-82
2023/02/03 06:39:24;;;;;;;;;;;5.20;96.20;;;;;;4968162;28;19921;-82
2023/02/03 06:41:52;;;;;;;;;;;5.20;95.90;;;;;;4980440;28;19911;-82
2023/02/03 06:44:18;;;;;;;;;;;5.20;95.90;;;;;;4980724;28;19917;-82
2023/02/03 06:46:43;;;;;;;;;;;5.20;95.70;;;;;;4979455;28;19918;-82
2023/02/03 06:49:09;;;;;;;;;;;5.20;95.80;;;;;;4991111;28;20008;-82
2023/02/03 06:51:35;;;;;;;;;;;5.30;95.80;;;;;;5001674;28;20004;-82
2023/02/03 06:54:02;;;;;;;;;;;5.20;96.00;;;;;;4999750;28;19920;-81
2023/02/03 06:56:28;;;;;;;;;;;5.20;95.90;;;;;;5000026;28;20442;-81
2023/02/03 06:58:54;;;;;;;;;;;5.20;96.00;;;;;;4977403;28;19921;-82
2023/02/03 07:01:19;;;;;;;;;;;5.20;96.20;;;;;;4962849;28;19914;-82
2023/02/03 07:03:45;;;;;;;;;;;5.30;96.00;;;;;;4962804;28;19958;-81
2023/02/03 07:06:12;;;;;;;;;;;5.30;96.00;;;;;;4979531;28;19969;-82
2023/02/03 07:08:37;;;;;;;;;;;5.30;96.00;;;;;;4981321;28;19961;-81
2023/02/03 07:11:03;;;;;;;;;;;5.30;96.00;;;;;;4984966;28;19973;-82
2023/02/03 07:13:28;;;;;;;;;;;5.30;96.00;;;;;;4981177;28;19910;-82
2023/02/03 07:15:54;;;;;;;;;;;5.30;96.00;;;;;;4982819;28;19914;-84
2023/02/03 07:18:23;;;;;;;;;;;5.30;96.10;;;;;;4965849;28;19918;-82
2023/02/03 07:20:49;;;;;;;;;;;5.30;96.10;;;;;;4974278;28;19913;-83
2023/02/03 07:23:15;;;;;;;;;;;5.40;95.80;;;;;;4986825;28;19902;-83
2023/02/03 07:25:41;;;;;;;;;;;5.40;95.90;;;;;;4999416;28;19917;-80
2023/02/03 07:28:06;;;;;;;;;;;5.40;95.80;;;;;;4981744;28;19980;-81
2023/02/03 07:30:43;;;;;;;;;;;5.40;95.60;;;;;;4977653;28;19928;-83
2023/02/03 07:33:09;;;;;;;;;;;5.40;95.70;;;;;;4982557;28;19917;-82
2023/02/03 07:35:35;;;;;;;;;;;5.50;95.30;;;;;;4962538;28;19914;-82
2023/02/03 07:38:01;;;;;;;;;;;5.50;95.30;;;;;;4962129;28;19917;-81
2023/02/03 07:40:27;;;;;;;;;;;5.50;95.10;;;;;;4977648;28;19914;-81
2023/02/03 07:42:53;;;;;;;;;;;5.50;94.80;;;;;;4968162;28;19906;-83
2023/02/03 07:45:34;;;;;;;;;;;5.60;94.80;;;;;;4974193;28;19916;-81
2023/02/03 07:47:59;;;;;;;;;;;5.60;94.60;;;;;;4963686;28;19970;-82
2023/02/03 07:50:25;;;;;;;;;;;5.70;94.50;;;;;;4980702;28;19910;-83
2023/02/03 07:52:51;;;;;;;;;;;5.70;94.30;;;;;;4962244;28;20295;-83
2023/02/03 07:55:19;;;;;;;;;;;5.70;93.80;;;;;;4994162;28;20298;-82
2023/02/03 07:57:46;;;;;;;;;;;5.80;93.80;;;;;;4996118;28;19917;-83
2023/02/03 08:00:15;;;;;;;;;;;5.80;93.70;;;;;;4997034;28;19918;-84
2023/02/03 08:02:41;;;;;;;;;;;5.90;93.40;;;;;;4980879;28;19916;-83
2023/02/03 08:05:07;;;;;;;;;;;6.00;93.20;;;;;;4997229;28;19910;-83
2023/02/03 08:07:32;;;;;;;;;;;6.10;92.80;;;;;;4997386;28;19918;-83
2023/02/03 08:09:58;;;;;;;;;;;6.20;92.80;;;;;;4996767;28;20306;-83
2023/02/03 08:12:24;;;;;;;;;;;6.20;92.70;;;;;;4997758;28;19910;-82
2023/02/03 08:14:49;;;;;;;;;;;6.20;92.40;;;;;;4996763;28;20008;-82
2023/02/03 08:17:15;;;;;;;;;;;6.20;92.30;;;;;;4987246;28;20291;-82
2023/02/03 08:19:40;;;;;;;;;;;6.20;92.20;;;;;;4998065;28;20382;-81
2023/02/03 08:22:06;;;;;;;;;;;6.30;91.90;;;;;;4997901;28;19917;-82
2023/02/03 08:24:31;;;;;;;;;;;6.30;91.90;;;;;;4998094;28;19914;-81
2023/02/03 08:26:58;;;;;;;;;;;6.40;91.70;;;;;;4999193;28;20008;-82
2023/02/03 08:29:27;;;;;;;;;;;6.50;91.30;;;;;;4999017;28;20379;-82
2023/02/03 08:31:53;;;;;;;;;;;6.60;90.90;;;;;;4983965;28;19914;-83
2023/02/03 08:34:19;;;;;;;;;;;6.60;90.80;;;;;;5000309;28;19933;-82
2023/02/03 08:36:44;;;;;;;;;;;6.60;91.10;;;;;;5000297;28;19910;-82
2023/02/03 08:39:39;;;;;;;;;;;6.50;91.00;;;;;;4984701;28;19913;-81
2023/02/03 08:42:05;;;;;;;;;;;6.60;90.70;;;;;;5000054;28;19914;-82
2023/02/03 08:44:31;;;;;;;;;;;6.60;90.50;;;;;;4999431;28;19909;-83
2023/02/03 08:47:00;;;;;;;;;;;6.60;90.50;;;;;;4978838;28;20318;-82
2023/02/03 08:49:29;;;;;;;;;;;6.50;90.50;;;;;;4986870;28;19953;-81
2023/02/03 08:51:55;;;;;;;;;;;6.50;90.50;;;;;;4980304;28;19918;-81
2023/02/03 08:54:21;;;;;;;;;;;6.50;90.70;;;;;;4979652;28;19921;-81
2023/02/03 08:56:46;;;;;;;;;;;6.40;90.90;;;;;;4963085;28;19991;-81
2023/02/03 08:59:13;;;;;;;;;;;6.50;90.30;;;;;;4990695;28;19953;-81
2023/02/03 09:01:49;;;;;;;;;;;6.60;90.20;;;;;;5005908;28;19922;-79
2023/02/03 09:04:23;;;;;;;;;;;6.70;90.30;;;;;;4994585;28;19913;-81
2023/02/03 09:06:49;;;;;;;;;;;6.70;90.00;;;;;;4985650;28;19922;-81
2023/02/03 09:09:15;;;;;;;;;;;6.70;90.10;;;;;;4985014;28;20007;-81
2023/02/03 09:11:41;;;;;;;;;;;6.80;90.00;;;;;;4993724;28;19914;-81
2023/02/03 09:14:07;;;;;;;;;;;6.80;89.80;;;;;;4997945;28;19930;-80
2023/02/03 09:16:33;;;;;;;;;;;6.80;89.10;;;;;;4991523;28;19910;-82
2023/02/03 09:18:58;;;;;;;;;;;6.90;89.00;;;;;;4974434;28;19934;-81
2023/02/03 09:21:24;;;;;;;;;;;6.90;89.70;;;;;;4984011;28;19910;-81
2023/02/03 09:23:50;;;;;;;;;;;6.90;89.40;;;;;;4982870;28;19916;-81
2023/02/03 09:26:16;;;;;;;;;;;6.90;88.40;;;;;;4965100;28;19914;-81
2023/02/03 09:28:42;;;;;;;;;;;6.90;88.30;;;;;;4982720;28;20029;-80
2023/02/03 09:31:09;;;;;;;;;;;7.10;87.50;;;;;;4989598;28;19949;-83
2023/02/03 09:33:35;;;;;;;;;;;7.10;87.00;;;;;;4984622;28;20248;-80
2023/02/03 09:36:00;;;;;;;;;;;7.10;87.20;;;;;;4967435;28;19914;-80
2023/02/03 09:38:26;;;;;;;;;;;7.10;87.20;;;;;;4967148;28;19914;-82
2023/02/03 09:40:54;;;;;;;;;;;7.10;87.70;;;;;;4984239;28;20014;-81
2023/02/03 09:43:39;;;;;;;;;;;7.10;87.40;;;;;;4983579;28;20363;-81
2023/02/03 09:46:25;;;;;;;;;;;7.20;87.00;;;;;;4988359;28;19960;-81
2023/02/03 09:49:06;;;;;;;;;;;7.30;86.50;;;;;;4983250;28;19914;-81
2023/02/03 09:51:37;;;;;;;;;;;7.30;86.50;;;;;;4982096;28;19910;-81
2023/02/03 09:54:32;;;;;;;;;;;7.40;85.70;;;;;;4985542;28;20314;-81
2023/02/03 09:57:25;;;;;;;;;;;7.50;85.40;;;;;;5021309;28;20333;-83
2023/02/03 09:59:58;;;;;;;;;;;7.50;85.40;;;;;;5003536;28;19909;-85
2023/02/03 10:02:42;;;;;;;;;;;7.60;85.20;;;;;;5024603;28;19909;-80
2023/02/03 10:05:20;;;;;;;;;;;7.70;84.30;;;;;;5022680;28;19910;-79
2023/02/03 10:08:09;;;;;;;;;;;7.80;84.30;;;;;;5013107;28;19913;-80
2023/02/03 10:10:39;;;;;;;;;;;7.80;83.70;;;;;;4953648;28;19917;-81
2023/02/03 10:13:17;;;;;;;;;;;7.70;83.40;;;;;;5005285;28;19918;-80
2023/02/03 10:15:59;;;;;;;;;;;7.70;83.30;;;;;;5002063;28;19914;-80
2023/02/03 10:18:32;;;;;;;;;;;7.70;82.00;;;;;;5008453;28;20278;-80
2023/02/03 10:21:03;;;;;;;;;;;7.70;82.40;;;;;;5008084;28;19967;-80
2023/02/03 10:23:34;;;;;;;;;;;7.60;83.50;;;;;;4984205;28;20213;-80
2023/02/03 10:26:01;;;;;;;;;;;7.60;83.20;;;;;;5001195;28;19977;-80
2023/02/03 10:28:28;;;;;;;;;;;7.60;83.10;;;;;;5016025;28;19918;-80
2023/02/03 10:30:55;;;;;;;;;;;7.60;83.50;;;;;;5001978;28;20386;-81
2023/02/03 10:33:23;;;;;;;;;;;7.60;83.50;;;;;;5001716;28;19910;-79
2023/02/03 10:35:51;;;;;;;;;;;7.70;83.80;;;;;;5001768;28;19975;-81
2023/02/03 10:38:22;;;;;;;;;;;7.80;82.80;;;;;;4999308;28;19920;-80
2023/02/03 10:40:48;;;;;;;;;;;7.90;81.30;;;;;;5003441;28;19936;-82
2023/02/03 10:45:57;;;;;;;;;;;7.90;81.80;;;;;;5018027;28;19921;-80
2023/02/03 10:48:23;;;;;;;;;;;8.00;80.90;;;;;;5008834;28;19918;-81
2023/02/03 10:50:50;;;;;;;;;;;8.10;80.50;;;;;;5017394;28;19941;-80
2023/02/03 10:53:38;;;;;;;;;;;8.10;80.80;;;;;;5004190;28;20349;-80
2023/02/03 10:56:09;;;;;;;;;;;8.10;80.90;;;;;;5003605;28;20286;-82
2023/02/03 10:58:35;;;;;;;;;;;8.20;80.20;;;;;;4989955;28;19914;-82
2023/02/03 11:01:08;;;;;;;;;;;8.10;80.00;;;;;;5002519;28;19957;-81
2023/02/03 11:03:34;;;;;;;;;;;8.10;80.10;;;;;;5002711;28;19916;-81
2023/02/03 11:06:09;;;;;;;;;;;8.10;79.90;;;;;;5002810;28;19917;-81
2023/02/03 11:08:36;;;;;;;;;;;8.20;80.00;;;;;;4984813;28;19929;-80
2023/02/03 11:11:12;;;;;;;;;;;8.30;79.30;;;;;;5003096;28;19909;-80
2023/02/03 11:13:38;;;;;;;;;;;8.40;78.20;;;;;;4989578;28;19917;-79
2023/02/03 11:16:05;;;;;;;;;;;8.40;77.90;;;;;;5009589;28;19910;-80
2023/02/03 11:18:37;;;;;;;;;;;8.50;77.70;;;;;;5014811;28;19924;-80
2023/02/03 11:21:10;;;;;;;;;;;8.60;77.10;;;;;;4987274;28;19918;-79
2023/02/03 11:23:37;;;;;;;;;;;8.80;76.40;;;;;;4989665;28;19917;-80
2023/02/03 11:26:09;;;;;;;;;;;8.70;76.30;;;;;;4987269;28;19981;-80
2023/02/03 11:28:34;;;;;;;;;;;8.60;77.10;;;;;;4999588;28;19917;-80
2023/02/03 11:31:00;;;;;;;;;;;8.70;76.40;;;;;;5027206;28;19910;-80
2023/02/03 11:33:26;;;;;;;;;;;8.80;75.70;;;;;;5027549;28;19925;-80
2023/02/03 11:35:53;;;;;;;;;;;8.80;74.60;;;;;;5027268;28;19949;-80
2023/02/03 11:38:29;;;;;;;;;;;8.80;74.60;;;;;;5025615;28;19910;-79
2023/02/03 11:40:59;;;;;;;;;;;8.80;74.70;;;;;;5004664;28;19969;-80
2023/02/03 11:43:27;;;;;;;;;;;8.90;75.10;;;;;;5005133;28;19918;-78
2023/02/03 11:45:58;;;;;;;;;;;8.90;74.50;;;;;;5001453;28;19920;-81
2023/02/03 11:48:32;;;;;;;;;;;8.90;75.40;;;;;;5010082;28;20011;-80
2023/02/03 11:51:17;;;;;;;;;;;9.00;74.40;;;;;;5007010;28;20397;-81
2023/02/03 11:53:57;;;;;;;;;;;9.20;73.30;;;;;;5022269;28;19935;-80
2023/02/03 11:56:26;;;;;;;;;;;9.20;73.00;;;;;;5010900;28;19922;-81
2023/02/03 11:59:10;;;;;;;;;;;9.20;72.80;;;;;;4995060;28;20368;-79
2023/02/03 12:02:08;;;;;;;;;;;9.20;72.40;;;;;;4967234;29;19914;-78
2023/02/03 12:04:34;;;;;;;;;;;9.20;72.30;;;;;;4953889;28;20126;-79
2023/02/03 12:07:08;;;;;;;;;;;9.10;72.30;;;;;;4982362;28;20281;-80
2023/02/03 12:09:52;;;;;;;;;;;9.00;72.90;;;;;;4980787;28;19925;-81
2023/02/03 12:12:21;;;;;;;;;;;8.80;73.40;;;;;;4981281;28;19925;-82
2023/02/03 12:14:46;;;;;;;;;;;8.80;73.30;;;;;;4999556;28;19909;-82
2023/02/03 12:17:47;;;;;;;;;;;8.70;73.00;;;;;;4987513;28;20001;-80
2023/02/03 12:20:24;;;;;;;;;;;8.60;74.40;;;;;;4887317;29;20069;-80
2023/02/03 12:23:02;;;;;;;;;;;8.70;73.40;;;;;;4954454;29;19917;-81
2023/02/03 12:25:34;;;;;;;;;;;8.60;73.60;;;;;;4973800;28;19910;-80
2023/02/03 12:28:00;;;;;;;;;;;8.60;73.50;;;;;;4982011;28;19914;-80
2023/02/03 12:30:34;;;;;;;;;;;8.60;73.70;;;;;;4963359;28;19925;-80
2023/02/03 12:33:03;;;;;;;;;;;8.60;73.90;;;;;;4981539;28;19910;-81
2023/02/03 12:35:58;;;;;;;;;;;8.70;73.40;;;;;;5000541;28;19910;-80
2023/02/03 12:38:36;;;;;;;;;;;8.60;73.40;;;;;;4999346;28;19910;-80
2023/02/03 12:41:05;;;;;;;;;;;8.60;73.30;;;;;;5001608;28;19937;-79
2023/02/03 12:43:38;;;;;;;;;;;8.70;73.00;;;;;;4990654;28;19926;-80
2023/02/03 12:46:22;;;;;;;;;;;8.60;72.50;;;;;;5000412;28;19925;-79
2023/02/03 12:48:48;;;;;;;;;;;8.60;72.80;;;;;;4993399;28;19922;-79
2023/02/03 12:51:17;;;;;;;;;;;8.60;73.20;;;;;;4994623;28;19898;-80
2023/02/03 12:53:49;;;;;;;;;;;8.60;73.10;;;;;;4991880;28;19914;-81
2023/02/03 12:56:18;;;;;;;;;;;8.70;73.40;;;;;;4984664;28;19924;-80
2023/02/03 12:59:00;;;;;;;;;;;8.80;72.50;;;;;;4988679;28;19964;-80
2023/02/03 13:01:31;;;;;;;;;;;8.80;72.20;;;;;;4988963;28;19914;-81
2023/02/03 13:04:03;;;;;;;;;;;8.80;73.10;;;;;;4986995;28;19910;-79
2023/02/03 13:06:38;;;;;;;;;;;8.80;73.00;;;;;;4985872;28;19933;-80
2023/02/03 13:09:03;;;;;;;;;;;8.70;72.90;;;;;;4969230;28;19918;-81
2023/02/03 13:11:47;;;;;;;;;;;8.70;73.10;;;;;;4986782;28;19934;-81
2023/02/03 13:14:16;;;;;;;;;;;8.50;73.30;;;;;;4984821;28;19929;-79
2023/02/03 13:16:44;;;;;;;;;;;8.40;74.00;;;;;;4984895;28;19914;-80
2023/02/03 13:19:29;;;;;;;;;;;8.30;74.60;;;;;;4983165;28;19921;-86
2023/02/03 13:25:13;;;;;;;;;;;8.10;75.40;;;;;;4992551;28;19934;-83
2023/02/03 13:27:48;;;;;;;;;;;8.00;76.20;;;;;;4992011;28;19934;-85
2023/02/03 13:30:22;;;;;;;;;;;7.90;76.30;;;;;;4970368;28;19918;-84
2023/02/03 13:33:01;;;;;;;;;;;7.90;76.50;;;;;;4987287;28;19954;-81
2023/02/03 13:35:45;;;;;;;;;;;7.80;77.10;;;;;;4987829;28;19910;-83
2023/02/03 13:38:18;;;;;;;;;;;7.80;77.40;;;;;;4970328;28;19979;-83
2023/02/03 13:40:59;;;;;;;;;;;7.80;77.40;;;;;;4986654;28;19910;-82
2023/02/03 13:43:31;;;;;;;;;;;7.90;77.50;;;;;;4984699;28;20279;-82
2023/02/03 13:45:57;;;;;;;;;;;7.90;77.60;;;;;;4990412;28;19973;-83
2023/02/03 13:48:27;;;;;;;;;;;7.90;77.40;;;;;;4990605;28;19918;-81
2023/02/03 13:51:02;;;;;;;;;;;7.80;78.30;;;;;;4995008;28;19910;-78
2023/02/03 13:53:32;;;;;;;;;;;7.70;78.00;;;;;;4997733;28;19914;-82
2023/02/03 13:56:01;;;;;;;;;;;7.70;78.30;;;;;;4992526;28;19922;-80
2023/02/03 13:58:29;;;;;;;;;;;7.70;78.40;;;;;;4993637;28;19910;-79
2023/02/03 14:00:55;;;;;;;;;;;7.60;78.50;;;;;;4992874;28;19910;-80
2023/02/03 14:03:23;;;;;;;;;;;7.60;78.50;;;;;;4991452;28;19917;-80
2023/02/03 14:05:53;;;;;;;;;;;7.60;79.00;;;;;;4992489;28;19910;-82
2023/02/03 14:08:24;;;;;;;;;;;7.50;79.00;;;;;;4991730;28;19924;-80
2023/02/03 14:11:08;;;;;;;;;;;7.50;79.10;;;;;;4992181;28;19937;-81
2023/02/03 14:13:34;;;;;;;;;;;7.50;78.90;;;;;;4992156;28;19935;-81
2023/02/03 14:16:26;;;;;;;;;;;7.40;78.90;;;;;;4991604;28;19918;-81
2023/02/03 14:18:53;;;;;;;;;;;7.50;79.40;;;;;;4991970;28;19908;-81
2023/02/03 14:21:19;;;;;;;;;;;7.50;79.30;;;;;;4992054;28;19977;-81
2023/02/03 14:23:48;;;;;;;;;;;7.50;79.20;;;;;;4968727;28;19910;-80
2023/02/03 14:26:19;;;;;;;;;;;7.40;79.10;;;;;;4985415;28;19949;-80
2023/02/03 14:28:46;;;;;;;;;;;7.40;79.10;;;;;;4990183;28;19921;-80
2023/02/03 14:31:18;;;;;;;;;;;7.50;79.00;;;;;;4983510;28;19911;-80
2023/02/03 14:33:48;;;;;;;;;;;7.40;79.10;;;;;;4970686;29;19910;-81
2023/02/03 14:36:26;;;;;;;;;;;7.40;79.50;;;;;;4986732;28;20010;-80
2023/02/03 14:38:51;;;;;;;;;;;7.40;79.40;;;;;;4991080;28;19915;-80
2023/02/03 14:41:19;;;;;;;;;;;7.40;79.30;;;;;;4990346;28;19916;-79
2023/02/03 14:44:01;;;;;;;;;;;7.40;79.40;;;;;;4972893;28;20412;-80
2023/02/03 14:46:28;;;;;;;;;;;7.40;79.60;;;;;;4973956;28;19894;-80
2023/02/03 14:49:04;;;;;;;;;;;7.40;79.80;;;;;;4998521;28;19995;-78
2023/02/03 14:51:30;;;;;;;;;;;7.40;80.00;;;;;;4990912;28;19918;-80
2023/02/03 14:54:02;;;;;;;;;;;7.30;80.00;;;;;;4972707;28;19910;-78
2023/02/03 14:59:24;;;;;;;;;;;7.40;79.90;;;;;;4990109;28;19994;-79
2023/02/03 15:01:49;;;;;;;;;;;7.30;80.00;;;;;;4985401;28;19910;-79